sensor_id;sensor_type;location;lat;lon;timestamp;pressure;altitude;pressure_sealevel;temperature;humidity
65054;BME280;51639;47.828;35.038;2023-01-28T02:35:53;100095.63;;;-0.62;100.00
65054;BME280;51639;47.828;35.038;2023-01-28T03:06:43;100082.28;;;-0.30;100.00
65054;BME280;51639;47.828;35.038;2023-01-28T03:21:47;100067.75;;;-0.33;100.00
65054;BME280;51639;47.828;35.038;2023-01-28T03:37:08;100075.72;;;-0.17;100.00
65054;BME280;51639;47.828;35.038;2023-01-28T03:52:12;100071.34;;;-0.41;100.00
65054;BME280;51639;47.828;35.038;2023-01-28T04:07:13;100076.00;;;-0.38;100.00
65054;BME280;51639;47.828;35.038;2023-01-28T04:22:16;100082.13;;;-0.38;100.00
65054;BME280;51639;47.828;35.038;2023-01-28T04:37:18;100070.94;;;-0.27;100.00
65054;BME280;51639;47.828;35.038;2023-01-28T04:52:20;100063.00;;;-0.40;100.00
65054;BME280;51639;47.828;35.038;2023-01-28T05:07:22;100068.16;;;-0.15;100.00
65054;BME280;51639;47.828;35.038;2023-01-28T05:22:24;100058.84;;;-0.21;100.00
65054;BME280;51639;47.828;35.038;2023-01-28T05:37:27;100067.38;;;0.00;100.00
65054;BME280;51639;47.828;35.038;2023-01-28T05:52:33;100075.78;;;0.02;100.00
65054;BME280;51639;47.828;35.038;2023-01-28T06:07:35;100075.00;;;0.02;100.00
65054;BME280;51639;47.828;35.038;2023-01-28T10:41:51;99954.50;;;2.12;100.00
65054;BME280;51639;47.828;35.038;2023-01-28T10:57:01;99938.16;;;1.91;100.00
65054;BME280;51639;47.828;35.038;2023-01-28T11:12:11;99924.16;;;2.34;100.00
65054;BME280;51639;47.828;35.038;2023-01-28T11:27:17;99920.97;;;2.25;100.00
65054;BME280;51639;47.828;35.038;2023-01-28T11:42:25;99937.03;;;2.62;100.00
65054;BME280;51639;47.828;35.038;2023-01-28T11:57:45;99934.16;;;2.78;100.00
65054;BME280;51639;47.828;35.038;2023-01-28T12:12:57;99912.06;;;2.95;100.00
65054;BME280;51639;47.828;35.038;2023-01-28T12:28:11;99920.78;;;2.85;100.00
65054;BME280;51639;47.828;35.038;2023-01-28T12:58:48;99899.22;;;2.71;100.00
65054;BME280;51639;47.828;35.038;2023-01-28T13:13:52;99906.72;;;2.51;100.00
65054;BME280;51639;47.828;35.038;2023-01-28T13:29:29;99942.00;;;2.60;100.00
65054;BME280;51639;47.828;35.038;2023-01-28T13:44:30;99941.31;;;2.67;100.00
65054;BME280;51639;47.828;35.038;2023-01-28T14:14:38;99955.25;;;2.83;100.00
65054;BME280;51639;47.828;35.038;2023-01-28T15:00:33;99982.22;;;3.01;100.00
65054;BME280;51639;47.828;35.038;2023-01-28T15:15:37;99975.66;;;2.95;100.00
65054;BME280;51639;47.828;35.038;2023-01-28T15:30:44;99976.13;;;3.07;100.00
65054;BME280;51639;47.828;35.038;2023-01-28T15:45:48;99990.31;;;3.04;100.00
65054;BME280;51639;47.828;35.038;2023-01-28T16:16:09;100020.47;;;2.94;100.00
65054;BME280;51639;47.828;35.038;2023-01-28T16:31:12;100006.53;;;2.78;100.00
65054;BME280;51639;47.828;35.038;2023-01-28T16:46:14;100027.81;;;2.64;100.00
65054;BME280;51639;47.828;35.038;2023-01-28T17:01:16;100018.84;;;2.49;100.00
65054;BME280;51639;47.828;35.038;2023-01-28T17:16:18;100018.84;;;2.49;100.00
65054;BME280;51639;47.828;35.038;2023-01-28T17:31:21;100014.94;;;2.43;100.00
65054;BME280;51639;47.828;35.038;2023-01-28T17:46:24;99997.84;;;2.55;100.00
65054;BME280;51639;47.828;35.038;2023-01-28T18:01:28;100001.06;;;2.71;100.00
65054;BME280;51639;47.828;35.038;2023-01-28T22:26:28;99846.38;;;2.27;100.00
65054;BME280;51639;47.828;35.038;2023-01-28T22:41:31;99838.47;;;2.42;100.00
65054;BME280;51639;47.828;35.038;2023-01-28T22:56:33;99865.25;;;2.42;100.00
65054;BME280;51639;47.828;35.038;2023-01-28T23:11:35;99873.69;;;2.44;100.00
65054;BME280;51639;47.828;35.038;2023-01-28T23:26:37;99859.84;;;2.34;100.00
65054;BME280;51639;47.828;35.038;2023-01-28T23:41:39;99869.06;;;2.40;100.00
65054;BME280;51639;47.828;35.038;2023-01-28T23:56:41;99873.69;;;2.44;100.00
